Terminal Aerodrome Forecast
Issued by NWS Tampa Bay Area, FL

Home | Current Version | Previous Version | Text Only | Print | Product List | Glossary On
Versions: 1 2 3 4 5 6 7 8 9 10 11 12 13 14 15
000
FTUS42 KTBW 162300
TAFFMY
TAF
KFMY 162329Z 1700/1724 30008KT P6SM VCSH SCT050 BKN100
     FM170600 VRB03KT P6SM VCTS SCT035CB BKN250
     FM171400 28007KT P6SM VCTS SCT035CB BKN250
     FM171800 26009KT P6SM VCTS SCT035CB BKN200
     FM172200 28008KT P6SM VCTS SCT025CB BKN050 OVC100=

USA.gov is the U.S. government's official web portal to all federal, state and local government web resources and services.